Pernille — 5BNZ2 — position and weather

sailwx.info

Track history (hours):
 
Tides and Currents Weather Stations Pressure Air Temp Water Temp Dewpoint Dewpoint Depression Visibility Wind Speed Wind Dir Waves Ship Positions

Pernille

Last reported at 2016-Sep-25 04:33 UTC. Time now 2016-Sep-25 12:13 UTC.
Position N 53°39' E 005°30'.

Length 83 m; draft 4.4 m.

Type: Cargo ship. MMSI: 212662000.

Date/timePositionNaut miles runAvg speedWind from/ knotsBaromVisibWave heightAir tempDewpointWater temp
2016-Sep-25 04:33N 53°39' E 005°30'37 9.3
2016-Sep-25 00:33N 53°50' E 006°30'2010.0
2016-Sep-24 22:33N 53°55' E 007°03'1110.7
2016-Sep-24 21:33N 53°58' E 007°20'2110.7
2016-Sep-24 19:33N 54°01' E 007°56'1110.8
2016-Sep-24 18:33N 54°01' E 008°15'1010.3
2016-Sep-24 17:33N 53°58' E 008°32'9 8.1
2016-Sep-24 16:29N 53°53' E 008°43'15 7.6
2016-Sep-24 14:33N 53°53' E 009°08'1 0.6
2016-Sep-24 12:31N 53°54' E 009°09'24 7.1
2016-Sep-24 09:11N 54°12' E 009°34'28 4.9
2016-Sep-24 03:33N 54°27' E 010°14'1110.9
2016-Sep-24 02:33N 54°33' E 010°30'1111.1
2016-Sep-24 01:33N 54°35' E 010°49'1110.8
2016-Sep-24 00:33N 54°36' E 011°07'44 8.7
2016-Sep-23 19:32N 54°40' E 012°23'6310.5
2016-Sep-23 13:33N 55°05' E 014°03'4210.5
2016-Sep-23 09:33N 55°34' E 014°57'36110.6
2016-Sep-21 23:33N 59°37' E 023°15'1110.6
2016-Sep-21 22:33N 59°40' E 023°35'  
2016-Sep-15 12:15N 60°11' E 027°46'911.7
2016-Sep-15 11:31N 60°06' E 027°32'  
Track history (hours):
 
Tides and Currents Weather Stations Pressure Air Temp Water Temp Dewpoint Dewpoint Depression Visibility Wind Speed Wind Dir Waves Ship Positions

Pernille

Last reported at 2016-Sep-25 04:33 UTC. Time now 2016-Sep-25 12:13 UTC.
Position N 53°39' E 005°30'.

Length 83 m; draft 4.4 m.

Type: Cargo ship. MMSI: 212662000.

Date/timePositionNaut miles runAvg speedWind from/ knotsBaromVisibWave heightAir tempDewpointWater temp
2016-Sep-25 04:33N 53°39' E 005°30'37 9.3
2016-Sep-25 00:33N 53°50' E 006°30'2010.0
2016-Sep-24 22:33N 53°55' E 007°03'1110.7
2016-Sep-24 21:33N 53°58' E 007°20'2110.7
2016-Sep-24 19:33N 54°01' E 007°56'1110.8
2016-Sep-24 18:33N 54°01' E 008°15'1010.3
2016-Sep-24 17:33N 53°58' E 008°32'9 8.1
2016-Sep-24 16:29N 53°53' E 008°43'15 7.6
2016-Sep-24 14:33N 53°53' E 009°08'1 0.6
2016-Sep-24 12:31N 53°54' E 009°09'24 7.1
2016-Sep-24 09:11N 54°12' E 009°34'28 4.9
2016-Sep-24 03:33N 54°27' E 010°14'1110.9
2016-Sep-24 02:33N 54°33' E 010°30'1111.1
2016-Sep-24 01:33N 54°35' E 010°49'1110.8
2016-Sep-24 00:33N 54°36' E 011°07'44 8.7
2016-Sep-23 19:32N 54°40' E 012°23'6310.5
2016-Sep-23 13:33N 55°05' E 014°03'4210.5
2016-Sep-23 09:33N 55°34' E 014°57'36110.6
2016-Sep-21 23:33N 59°37' E 023°15'1110.6
2016-Sep-21 22:33N 59°40' E 023°35'  
2016-Sep-15 12:15N 60°11' E 027°46'911.7
2016-Sep-15 11:31N 60°06' E 027°32'  

Dump ship's entire track history